AAL1875 KBNA-KCLT
Flight info
| Callsign | AAL1875 |
|---|---|
| Flight time | 0h 48m |
| Altitude | 33000 |
| Route | TAZMO4 BURME COMDY FILPZ4 |
| Aircraft | B738/M-SDE2E3FGHIRWXY/LB1 |
Departure
| Time | 2026-05-07 22:55 |
|---|---|
| Airport | Nashville International Airport (KBNA) |
Arrival
| Time | 2026-05-07 23:43 |
|---|---|
| Airport | Charlotte Douglas International Airport (KCLT) |
| Time | Latitude | Longitude | Altitude | Speed | Heading |
|---|---|---|---|---|---|
| 2026-05-07 22:15 | 36.12793 | -86.67005 | 572 ft | 0 kts | 41° |
| 2026-05-07 22:40 | 36.12793 | -86.67006 | 568 ft | 1 kts | 41° |
| 2026-05-07 22:41 | 36.12782 | -86.67017 | 572 ft | 3 kts | 41° |
| 2026-05-07 22:41 | 36.12767 | -86.67033 | 575 ft | 3 kts | 36° |
| 2026-05-07 22:41 | 36.12751 | -86.67045 | 572 ft | 3 kts | 10° |
| 2026-05-07 22:41 | 36.12732 | -86.67045 | 568 ft | 3 kts | 332° |
| 2026-05-07 22:42 | 36.12720 | -86.67034 | 573 ft | 1 kts | 310° |
| 2026-05-07 22:42 | 36.12719 | -86.67033 | 573 ft | 0 kts | 310° |
| 2026-05-07 22:44 | 36.12723 | -86.67038 | 573 ft | 3 kts | 310° |
| 2026-05-07 22:45 | 36.12715 | -86.67073 | 568 ft | 8 kts | 211° |
| 2026-05-07 22:45 | 36.12659 | -86.67046 | 568 ft | 12 kts | 131° |
| 2026-05-07 22:45 | 36.12601 | -86.66959 | 574 ft | 14 kts | 131° |
| 2026-05-07 22:45 | 36.12539 | -86.66921 | 574 ft | 10 kts | 191° |
| 2026-05-07 22:46 | 36.12480 | -86.66958 | 577 ft | 10 kts | 210° |
| 2026-05-07 22:46 | 36.12423 | -86.66999 | 574 ft | 9 kts | 210° |
| 2026-05-07 22:46 | 36.12374 | -86.67039 | 573 ft | 7 kts | 216° |
| 2026-05-07 22:46 | 36.12339 | -86.67081 | 574 ft | 8 kts | 227° |
| 2026-05-07 22:47 | 36.12287 | -86.67146 | 573 ft | 13 kts | 225° |
| 2026-05-07 22:47 | 36.12218 | -86.67230 | 576 ft | 13 kts | 224° |
| 2026-05-07 22:47 | 36.12207 | -86.67316 | 582 ft | 9 kts | 302° |
| 2026-05-07 22:47 | 36.12250 | -86.67376 | 579 ft | 10 kts | 313° |
| 2026-05-07 22:48 | 36.12308 | -86.67452 | 579 ft | 15 kts | 314° |
| 2026-05-07 22:48 | 36.12327 | -86.67538 | 579 ft | 9 kts | 237° |
| 2026-05-07 22:48 | 36.12292 | -86.67581 | 582 ft | 6 kts | 222° |
| 2026-05-07 22:48 | 36.12268 | -86.67608 | 579 ft | 5 kts | 223° |
| 2026-05-07 22:49 | 36.12246 | -86.67639 | 577 ft | 6 kts | 236° |
| 2026-05-07 22:49 | 36.12222 | -86.67694 | 577 ft | 9 kts | 241° |
| 2026-05-07 22:49 | 36.12183 | -86.67771 | 579 ft | 11 kts | 224° |
| 2026-05-07 22:49 | 36.12108 | -86.67811 | 581 ft | 14 kts | 198° |
| 2026-05-07 22:50 | 36.12004 | -86.67853 | 578 ft | 18 kts | 198° |
| 2026-05-07 22:50 | 36.11887 | -86.67901 | 579 ft | 17 kts | 198° |
| 2026-05-07 22:50 | 36.11773 | -86.67947 | 578 ft | 17 kts | 199° |
| 2026-05-07 22:50 | 36.11663 | -86.67992 | 579 ft | 16 kts | 198° |
| 2026-05-07 22:51 | 36.11559 | -86.68035 | 579 ft | 16 kts | 198° |
| 2026-05-07 22:51 | 36.11453 | -86.68078 | 579 ft | 16 kts | 198° |
| 2026-05-07 22:51 | 36.11342 | -86.68123 | 579 ft | 19 kts | 198° |
| 2026-05-07 22:51 | 36.11208 | -86.68178 | 580 ft | 21 kts | 198° |
| 2026-05-07 22:52 | 36.11085 | -86.68280 | 576 ft | 22 kts | 220° |
| 2026-05-07 22:52 | 36.10971 | -86.68396 | 576 ft | 21 kts | 211° |
| 2026-05-07 22:52 | 36.10837 | -86.68452 | 572 ft | 20 kts | 199° |
| 2026-05-07 22:52 | 36.10705 | -86.68505 | 573 ft | 20 kts | 198° |
| 2026-05-07 22:53 | 36.10577 | -86.68556 | 573 ft | 19 kts | 198° |
| 2026-05-07 22:53 | 36.10454 | -86.68606 | 579 ft | 18 kts | 198° |
| 2026-05-07 22:53 | 36.10350 | -86.68649 | 582 ft | 11 kts | 203° |
| 2026-05-07 22:53 | 36.10323 | -86.68715 | 577 ft | 10 kts | 282° |
| 2026-05-07 22:54 | 36.10345 | -86.68779 | 576 ft | 7 kts | 314° |
| 2026-05-07 22:54 | 36.10391 | -86.68772 | 574 ft | 8 kts | 16° |
| 2026-05-07 22:54 | 36.10483 | -86.68737 | 577 ft | 31 kts | 18° |
| 2026-05-07 22:54 | 36.10924 | -86.68560 | 574 ft | 101 kts | 18° |
| 2026-05-07 22:55 | 36.11763 | -86.68228 | 585 ft | 152 kts | 18° |
| 2026-05-07 22:55 | 36.12766 | -86.67825 | 1194 ft | 151 kts | 15° |
| 2026-05-07 22:55 | 36.13819 | -86.67449 | 1763 ft | 164 kts | 12° |
| 2026-05-07 22:55 | 36.14875 | -86.67046 | 2424 ft | 165 kts | 19° |
| 2026-05-07 22:56 | 36.15795 | -86.66031 | 2773 ft | 191 kts | 55° |
| 2026-05-07 22:56 | 36.16634 | -86.64650 | 3204 ft | 211 kts | 48° |
| 2026-05-07 22:56 | 36.17599 | -86.63189 | 3561 ft | 227 kts | 49° |
| 2026-05-07 22:56 | 36.18601 | -86.61653 | 4189 ft | 227 kts | 49° |
| 2026-05-07 22:57 | 36.19486 | -86.59959 | 4613 ft | 249 kts | 66° |
| 2026-05-07 22:57 | 36.19887 | -86.57844 | 5196 ft | 258 kts | 82° |
| 2026-05-07 22:57 | 36.19694 | -86.55577 | 5713 ft | 274 kts | 105° |
| 2026-05-07 22:57 | 36.19047 | -86.53302 | 6323 ft | 284 kts | 109° |
| 2026-05-07 22:58 | 36.18515 | -86.50910 | 6988 ft | 291 kts | 102° |
| 2026-05-07 22:58 | 36.18070 | -86.48441 | 7711 ft | 296 kts | 101° |
| 2026-05-07 22:58 | 36.17628 | -86.45965 | 8484 ft | 301 kts | 101° |
| 2026-05-07 22:58 | 36.17166 | -86.43399 | 9184 ft | 309 kts | 101° |
| 2026-05-07 22:59 | 36.16691 | -86.40774 | 9967 ft | 315 kts | 101° |
| 2026-05-07 22:59 | 36.16200 | -86.38080 | 10443 ft | 331 kts | 102° |
| 2026-05-07 22:59 | 36.15670 | -86.35189 | 10622 ft | 357 kts | 102° |
| 2026-05-07 22:59 | 36.15102 | -86.32100 | 10879 ft | 377 kts | 102° |
| 2026-05-07 23:00 | 36.14506 | -86.28883 | 11380 ft | 388 kts | 102° |
| 2026-05-07 23:00 | 36.13896 | -86.25598 | 12020 ft | 395 kts | 103° |
| 2026-05-07 23:00 | 36.13277 | -86.22268 | 12691 ft | 401 kts | 103° |
| 2026-05-07 23:00 | 36.12645 | -86.18875 | 13357 ft | 409 kts | 103° |
| 2026-05-07 23:01 | 36.12217 | -86.16585 | 13779 ft | 414 kts | 103° |
| 2026-05-07 23:01 | 36.11349 | -86.11936 | 14588 ft | 423 kts | 103° |
| 2026-05-07 23:01 | 36.10899 | -86.09530 | 15032 ft | 427 kts | 103° |
| 2026-05-07 23:01 | 36.10223 | -86.05928 | 15700 ft | 432 kts | 104° |
| 2026-05-07 23:02 | 36.09541 | -86.02290 | 16368 ft | 437 kts | 104° |
| 2026-05-07 23:02 | 36.08847 | -85.98599 | 16978 ft | 444 kts | 104° |
| 2026-05-07 23:02 | 36.08140 | -85.94848 | 17611 ft | 450 kts | 104° |
| 2026-05-07 23:02 | 36.07428 | -85.91072 | 18265 ft | 455 kts | 104° |
| 2026-05-07 23:03 | 36.06704 | -85.87238 | 18764 ft | 461 kts | 105° |
| 2026-05-07 23:03 | 36.05970 | -85.83357 | 19341 ft | 465 kts | 105° |
| 2026-05-07 23:03 | 36.05237 | -85.79447 | 19862 ft | 471 kts | 103° |
| 2026-05-07 23:03 | 36.04729 | -85.75411 | 20384 ft | 477 kts | 96° |
| 2026-05-07 23:04 | 36.04429 | -85.71309 | 20927 ft | 482 kts | 95° |
| 2026-05-07 23:04 | 36.04183 | -85.67155 | 21460 ft | 487 kts | 94° |
| 2026-05-07 23:04 | 36.03947 | -85.63017 | 21948 ft | 492 kts | 95° |
| 2026-05-07 23:04 | 36.03692 | -85.58783 | 22426 ft | 497 kts | 95° |
| 2026-05-07 23:05 | 36.03414 | -85.54505 | 22935 ft | 501 kts | 95° |
| 2026-05-07 23:05 | 36.03117 | -85.50186 | 23437 ft | 506 kts | 96° |
| 2026-05-07 23:05 | 36.02808 | -85.45840 | 23847 ft | 510 kts | 96° |
| 2026-05-07 23:05 | 36.02489 | -85.41448 | 24188 ft | 516 kts | 96° |
| 2026-05-07 23:06 | 36.02166 | -85.37008 | 24483 ft | 523 kts | 96° |
| 2026-05-07 23:06 | 36.01836 | -85.32502 | 24803 ft | 528 kts | 96° |
| 2026-05-07 23:06 | 36.01502 | -85.27950 | 25154 ft | 533 kts | 96° |
| 2026-05-07 23:06 | 36.01166 | -85.23363 | 25484 ft | 539 kts | 97° |
| 2026-05-07 23:07 | 36.00827 | -85.18742 | 25795 ft | 544 kts | 97° |
| 2026-05-07 23:07 | 36.00484 | -85.14086 | 26110 ft | 549 kts | 97° |
| 2026-05-07 23:07 | 36.00135 | -85.09374 | 26419 ft | 554 kts | 97° |
| 2026-05-07 23:07 | 35.99779 | -85.04611 | 26707 ft | 558 kts | 97° |
| 2026-05-07 23:08 | 35.99449 | -84.99824 | 26955 ft | 564 kts | 96° |
| 2026-05-07 23:08 | 35.99149 | -84.94953 | 27219 ft | 570 kts | 96° |
| 2026-05-07 23:08 | 35.98866 | -84.90058 | 27509 ft | 574 kts | 96° |
| 2026-05-07 23:08 | 35.98584 | -84.85130 | 27801 ft | 578 kts | 96° |
| 2026-05-07 23:09 | 35.98296 | -84.80183 | 28063 ft | 582 kts | 96° |
| 2026-05-07 23:09 | 35.97999 | -84.75178 | 28302 ft | 587 kts | 96° |
| 2026-05-07 23:09 | 35.97691 | -84.70126 | 28541 ft | 592 kts | 96° |
| 2026-05-07 23:09 | 35.97375 | -84.65068 | 28774 ft | 595 kts | 96° |
| 2026-05-07 23:10 | 35.97051 | -84.59960 | 29081 ft | 598 kts | 97° |
| 2026-05-07 23:10 | 35.96726 | -84.54831 | 29353 ft | 601 kts | 96° |
| 2026-05-07 23:10 | 35.96396 | -84.49673 | 29595 ft | 605 kts | 97° |
| 2026-05-07 23:10 | 35.96060 | -84.44487 | 29906 ft | 607 kts | 97° |
| 2026-05-07 23:11 | 35.95723 | -84.39287 | 30248 ft | 608 kts | 97° |
| 2026-05-07 23:11 | 35.95387 | -84.34092 | 30629 ft | 606 kts | 97° |
| 2026-05-07 23:11 | 35.95050 | -84.28921 | 31089 ft | 603 kts | 97° |
| 2026-05-07 23:11 | 35.94712 | -84.23769 | 31556 ft | 601 kts | 97° |
| 2026-05-07 23:12 | 35.94374 | -84.18648 | 31992 ft | 599 kts | 97° |
| 2026-05-07 23:12 | 35.94035 | -84.13549 | 32540 ft | 593 kts | 98° |
| 2026-05-07 23:12 | 35.93811 | -84.10209 | 32933 ft | 587 kts | 98° |
| 2026-05-07 23:13 | 35.93026 | -83.98603 | 32999 ft | 575 kts | 98° |
| 2026-05-07 23:13 | 35.92354 | -83.88861 | 33020 ft | 573 kts | 98° |
| 2026-05-07 23:14 | 35.91661 | -83.78913 | 33012 ft | 575 kts | 98° |
| 2026-05-07 23:14 | 35.90993 | -83.69410 | 33011 ft | 576 kts | 98° |
| 2026-05-07 23:15 | 35.90531 | -83.62898 | 33009 ft | 576 kts | 98° |
| 2026-05-07 23:15 | 35.89586 | -83.49699 | 32968 ft | 577 kts | 98° |
| 2026-05-07 23:16 | 35.88207 | -83.40089 | 33018 ft | 566 kts | 112° |
| 2026-05-07 23:16 | 35.85919 | -83.30813 | 32990 ft | 566 kts | 114° |
| 2026-05-07 23:17 | 35.83732 | -83.21488 | 32998 ft | 568 kts | 112° |
| 2026-05-07 23:17 | 35.81666 | -83.12142 | 32360 ft | 570 kts | 111° |
| 2026-05-07 23:17 | 35.80638 | -83.07478 | 32114 ft | 560 kts | 111° |
| 2026-05-07 23:18 | 35.79613 | -83.02849 | 31499 ft | 560 kts | 111° |
| 2026-05-07 23:18 | 35.78584 | -82.98237 | 30883 ft | 562 kts | 111° |
| 2026-05-07 23:18 | 35.77542 | -82.93584 | 30215 ft | 565 kts | 111° |
| 2026-05-07 23:18 | 35.76494 | -82.88915 | 29416 ft | 567 kts | 111° |
| 2026-05-07 23:19 | 35.75441 | -82.84230 | 28710 ft | 568 kts | 110° |
| 2026-05-07 23:19 | 35.74398 | -82.79564 | 28148 ft | 563 kts | 110° |
| 2026-05-07 23:19 | 35.73366 | -82.74953 | 27793 ft | 552 kts | 111° |
| 2026-05-07 23:19 | 35.72365 | -82.70448 | 27584 ft | 540 kts | 110° |
| 2026-05-07 23:20 | 35.71366 | -82.66029 | 27140 ft | 534 kts | 110° |
| 2026-05-07 23:20 | 35.70364 | -82.61645 | 26661 ft | 529 kts | 111° |
| 2026-05-07 23:20 | 35.69369 | -82.57309 | 26209 ft | 524 kts | 110° |
| 2026-05-07 23:20 | 35.68385 | -82.53024 | 25827 ft | 517 kts | 110° |
| 2026-05-07 23:21 | 35.67408 | -82.48772 | 25253 ft | 516 kts | 110° |
| 2026-05-07 23:21 | 35.66440 | -82.44552 | 24804 ft | 508 kts | 110° |
| 2026-05-07 23:21 | 35.65490 | -82.40409 | 24335 ft | 498 kts | 110° |
| 2026-05-07 23:21 | 35.64559 | -82.36347 | 23845 ft | 488 kts | 110° |
| 2026-05-07 23:22 | 35.63642 | -82.32369 | 23404 ft | 478 kts | 110° |
| 2026-05-07 23:22 | 35.62742 | -82.28474 | 22867 ft | 470 kts | 110° |
| 2026-05-07 23:22 | 35.61855 | -82.24654 | 22448 ft | 458 kts | 110° |
| 2026-05-07 23:22 | 35.60994 | -82.20935 | 22043 ft | 448 kts | 110° |
| 2026-05-07 23:23 | 35.60140 | -82.17262 | 21623 ft | 446 kts | 110° |
| 2026-05-07 23:23 | 35.59290 | -82.13608 | 21185 ft | 444 kts | 110° |
| 2026-05-07 23:23 | 35.58442 | -82.09970 | 20777 ft | 441 kts | 109° |
| 2026-05-07 23:23 | 35.57596 | -82.06363 | 20355 ft | 438 kts | 111° |
| 2026-05-07 23:24 | 35.56557 | -82.02867 | 19942 ft | 433 kts | 117° |
| 2026-05-07 23:24 | 35.55350 | -81.99500 | 19540 ft | 429 kts | 119° |
| 2026-05-07 23:24 | 35.54089 | -81.96198 | 19132 ft | 426 kts | 119° |
| 2026-05-07 23:24 | 35.52835 | -81.92909 | 18739 ft | 424 kts | 119° |
| 2026-05-07 23:25 | 35.51604 | -81.89626 | 18306 ft | 422 kts | 118° |
| 2026-05-07 23:25 | 35.50401 | -81.86357 | 17836 ft | 419 kts | 117° |
| 2026-05-07 23:25 | 35.49216 | -81.83100 | 17452 ft | 415 kts | 117° |
| 2026-05-07 23:25 | 35.48048 | -81.79891 | 17063 ft | 409 kts | 117° |
| 2026-05-07 23:26 | 35.46903 | -81.76721 | 16665 ft | 405 kts | 118° |
| 2026-05-07 23:26 | 35.45762 | -81.73591 | 16404 ft | 397 kts | 118° |
| 2026-05-07 23:26 | 35.44651 | -81.70541 | 16255 ft | 387 kts | 118° |
| 2026-05-07 23:26 | 35.43573 | -81.67565 | 16162 ft | 376 kts | 118° |
| 2026-05-07 23:27 | 35.41618 | -81.61691 | 15505 ft | 382 kts | 110° |
| 2026-05-07 23:27 | 35.40855 | -81.58586 | 15077 ft | 378 kts | 109° |
| 2026-05-07 23:27 | 35.40107 | -81.55532 | 14660 ft | 371 kts | 110° |
| 2026-05-07 23:28 | 35.39334 | -81.52548 | 14331 ft | 364 kts | 111° |
| 2026-05-07 23:28 | 35.38551 | -81.49628 | 14010 ft | 358 kts | 111° |
| 2026-05-07 23:28 | 35.37759 | -81.46755 | 13689 ft | 353 kts | 112° |
| 2026-05-07 23:28 | 35.36956 | -81.43926 | 13335 ft | 350 kts | 112° |
| 2026-05-07 23:29 | 35.36154 | -81.41122 | 12992 ft | 349 kts | 112° |
| 2026-05-07 23:29 | 35.35351 | -81.38319 | 12666 ft | 348 kts | 112° |
| 2026-05-07 23:29 | 35.34552 | -81.35520 | 12344 ft | 348 kts | 112° |
| 2026-05-07 23:29 | 35.33756 | -81.32724 | 11986 ft | 347 kts | 112° |
| 2026-05-07 23:30 | 35.32963 | -81.29938 | 11647 ft | 346 kts | 112° |
| 2026-05-07 23:30 | 35.32176 | -81.27167 | 11321 ft | 343 kts | 112° |
| 2026-05-07 23:30 | 35.31392 | -81.24421 | 11007 ft | 339 kts | 112° |
| 2026-05-07 23:30 | 35.30621 | -81.21725 | 10705 ft | 331 kts | 112° |
| 2026-05-07 23:31 | 35.29877 | -81.19115 | 10569 ft | 318 kts | 112° |
| 2026-05-07 23:31 | 35.29163 | -81.16607 | 10437 ft | 306 kts | 112° |
| 2026-05-07 23:31 | 35.28479 | -81.14215 | 10299 ft | 294 kts | 113° |
| 2026-05-07 23:31 | 35.27818 | -81.11903 | 10177 ft | 281 kts | 113° |
| 2026-05-07 23:32 | 35.27144 | -81.09681 | 10055 ft | 276 kts | 122° |
| 2026-05-07 23:32 | 35.25949 | -81.07986 | 10009 ft | 255 kts | 155° |
| 2026-05-07 23:32 | 35.24388 | -81.07143 | 10010 ft | 240 kts | 175° |
| 2026-05-07 23:32 | 35.22754 | -81.06854 | 10018 ft | 238 kts | 184° |
| 2026-05-07 23:33 | 35.21089 | -81.06721 | 9932 ft | 243 kts | 185° |
| 2026-05-07 23:33 | 35.19393 | -81.06599 | 9763 ft | 242 kts | 184° |
| 2026-05-07 23:33 | 35.17726 | -81.06472 | 9637 ft | 239 kts | 184° |
| 2026-05-07 23:33 | 35.16086 | -81.06337 | 9515 ft | 234 kts | 185° |
| 2026-05-07 23:34 | 35.14463 | -81.06202 | 9160 ft | 234 kts | 184° |
| 2026-05-07 23:34 | 35.12829 | -81.06089 | 8744 ft | 237 kts | 182° |
| 2026-05-07 23:34 | 35.11195 | -81.05910 | 8376 ft | 234 kts | 185° |
| 2026-05-07 23:34 | 35.09559 | -81.05782 | 7997 ft | 236 kts | 183° |
| 2026-05-07 23:35 | 35.07930 | -81.05638 | 7665 ft | 234 kts | 183° |
| 2026-05-07 23:35 | 35.06318 | -81.05499 | 7367 ft | 232 kts | 185° |
| 2026-05-07 23:35 | 35.04727 | -81.05520 | 7110 ft | 228 kts | 188° |
| 2026-05-07 23:35 | 35.03146 | -81.05587 | 6768 ft | 229 kts | 188° |
| 2026-05-07 23:36 | 35.01574 | -81.05641 | 6449 ft | 228 kts | 187° |
| 2026-05-07 23:36 | 34.99995 | -81.05604 | 6125 ft | 230 kts | 175° |
| 2026-05-07 23:36 | 34.98513 | -81.04770 | 5656 ft | 246 kts | 141° |
| 2026-05-07 23:36 | 34.97569 | -81.03028 | 5429 ft | 249 kts | 108° |
| 2026-05-07 23:37 | 34.97427 | -81.00947 | 5213 ft | 247 kts | 84° |
| 2026-05-07 23:37 | 34.97587 | -80.98866 | 4947 ft | 247 kts | 82° |
| 2026-05-07 23:37 | 34.97757 | -80.96836 | 4883 ft | 234 kts | 82° |
| 2026-05-07 23:37 | 34.98097 | -80.94965 | 4752 ft | 219 kts | 57° |
| 2026-05-07 23:38 | 34.99093 | -80.93681 | 4553 ft | 201 kts | 23° |
| 2026-05-07 23:38 | 35.00297 | -80.93011 | 4466 ft | 184 kts | 8° |
| 2026-05-07 23:38 | 35.01462 | -80.93163 | 4429 ft | 162 kts | 338° |
| 2026-05-07 23:38 | 35.02599 | -80.93467 | 4290 ft | 172 kts | 349° |
| 2026-05-07 23:39 | 35.03792 | -80.93641 | 4124 ft | 171 kts | 351° |
| 2026-05-07 23:39 | 35.04966 | -80.93782 | 3754 ft | 175 kts | 353° |
| 2026-05-07 23:39 | 35.06203 | -80.93895 | 3417 ft | 177 kts | 354° |
| 2026-05-07 23:39 | 35.07428 | -80.94001 | 3157 ft | 174 kts | 355° |
| 2026-05-07 23:40 | 35.08624 | -80.94103 | 2928 ft | 170 kts | 356° |
| 2026-05-07 23:40 | 35.09785 | -80.94203 | 2702 ft | 165 kts | 355° |
| 2026-05-07 23:40 | 35.10908 | -80.94299 | 2477 ft | 156 kts | 355° |
| 2026-05-07 23:40 | 35.11967 | -80.94391 | 2292 ft | 150 kts | 355° |
| 2026-05-07 23:41 | 35.12966 | -80.94477 | 2116 ft | 139 kts | 355° |
| 2026-05-07 23:41 | 35.13948 | -80.94562 | 1913 ft | 143 kts | 355° |
| 2026-05-07 23:41 | 35.14915 | -80.94646 | 1727 ft | 134 kts | 355° |
| 2026-05-07 23:41 | 35.15855 | -80.94726 | 1591 ft | 137 kts | 354° |
| 2026-05-07 23:42 | 35.16788 | -80.94807 | 1398 ft | 132 kts | 357° |
| 2026-05-07 23:42 | 35.17723 | -80.94894 | 1259 ft | 138 kts | 0° |
| 2026-05-07 23:42 | 35.18708 | -80.94983 | 1075 ft | 145 kts | 359° |
| 2026-05-07 23:42 | 35.19697 | -80.95064 | 834 ft | 140 kts | 359° |
| 2026-05-07 23:43 | 35.20629 | -80.95134 | 737 ft | 123 kts | 355° |
| 2026-05-07 23:43 | 35.21265 | -80.95192 | 736 ft | 61 kts | 356° |
| 2026-05-07 23:43 | 35.21535 | -80.95216 | 737 ft | 30 kts | 356° |
| 2026-05-07 23:43 | 35.21719 | -80.95231 | 740 ft | 23 kts | 355° |
| 2026-05-07 23:44 | 35.21869 | -80.95216 | 740 ft | 21 kts | 13° |
| 2026-05-07 23:44 | 35.21984 | -80.95168 | 737 ft | 13 kts | 23° |
| 2026-05-07 23:44 | 35.22019 | -80.95148 | 736 ft | 4 kts | 24° |
| 2026-05-07 23:44 | 35.22042 | -80.95135 | 735 ft | 4 kts | 25° |
| 2026-05-07 23:45 | 35.22049 | -80.95131 | 735 ft | 1 kts | 26° |
| 2026-05-07 23:45 | 35.22053 | -80.95129 | 735 ft | 1 kts | 26° |
| 2026-05-07 23:45 | 35.22056 | -80.95127 | 735 ft | 1 kts | 26° |
| 2026-05-07 23:45 | 35.22060 | -80.95125 | 735 ft | 1 kts | 26° |
| 2026-05-07 23:46 | 35.22068 | -80.95119 | 734 ft | 3 kts | 31° |
| 2026-05-07 23:46 | 35.22092 | -80.95091 | 734 ft | 7 kts | 50° |
| 2026-05-07 23:46 | 35.22077 | -80.95054 | 732 ft | 7 kts | 185° |
| 2026-05-07 23:46 | 35.22030 | -80.95058 | 733 ft | 8 kts | 175° |
| 2026-05-07 23:47 | 35.21973 | -80.95052 | 733 ft | 8 kts | 175° |
| 2026-05-07 23:47 | 35.21915 | -80.95047 | 733 ft | 8 kts | 177° |
| 2026-05-07 23:47 | 35.21860 | -80.95042 | 733 ft | 8 kts | 175° |
| 2026-05-07 23:47 | 35.21806 | -80.95037 | 733 ft | 8 kts | 176° |
| 2026-05-07 23:48 | 35.21756 | -80.95025 | 733 ft | 7 kts | 145° |
| 2026-05-07 23:48 | 35.21739 | -80.94967 | 732 ft | 8 kts | 109° |
| 2026-05-07 23:48 | 35.21693 | -80.94940 | 732 ft | 8 kts | 172° |
| 2026-05-07 23:48 | 35.21637 | -80.94932 | 732 ft | 8 kts | 164° |
| 2026-05-07 23:49 | 35.21607 | -80.94882 | 731 ft | 8 kts | 88° |
| 2026-05-07 23:49 | 35.21612 | -80.94810 | 731 ft | 9 kts | 86° |
| 2026-05-07 23:49 | 35.21616 | -80.94729 | 731 ft | 9 kts | 86° |
| 2026-05-07 23:49 | 35.21621 | -80.94653 | 731 ft | 9 kts | 86° |
| 2026-05-07 23:50 | 35.21625 | -80.94577 | 731 ft | 9 kts | 86° |
| 2026-05-07 23:50 | 35.21629 | -80.94504 | 731 ft | 9 kts | 84° |
| 2026-05-07 23:50 | 35.21644 | -80.94436 | 731 ft | 8 kts | 63° |
| 2026-05-07 23:50 | 35.21676 | -80.94380 | 731 ft | 8 kts | 31° |
| 2026-05-07 23:51 | 35.21730 | -80.94377 | 731 ft | 8 kts | 356° |
| 2026-05-07 23:51 | 35.21761 | -80.94373 | 731 ft | 6 kts | 27° |
| 2026-05-07 23:51 | 35.21788 | -80.94314 | 731 ft | 6 kts | 70° |
| 2026-05-07 23:51 | 35.21798 | -80.94281 | 731 ft | 1 kts | 70° |
| 2026-05-07 23:52 | 35.21798 | -80.94279 | 731 ft | 0 kts | 70° |